LDA8I EDDN-EDLV
Flight info
| Callsign | LDA8I |
|---|---|
| Flight time | 0h 48m |
| Altitude | 24000 |
| Route | SUKAD1G/28 SUKAD Y165 EDUDU Y101 OSBIT Z719 BIBTA N850 GISEM Z505 ARPEG Z850 EKTOT/N0372F200 Z850 TURUX DCT SOBTU SOBTU1W |
| Aircraft | A321/M-SDE3FGHIRWY/LB1 |
Departure
| Time | 2026-05-04 19:42 |
|---|---|
| Airport | Nuremberg Airport (EDDN) |
Arrival
| Time | 2026-05-04 20:30 |
|---|---|
| Airport | Weeze (Niederrhein) Airport (EDLV) |
| Time | Latitude | Longitude | Altitude | Speed | Heading |
|---|---|---|---|---|---|
| 2026-05-04 19:17 | 49.49635 | 11.07141 | 1018 ft | 0 kts | 181° |
| 2026-05-04 19:35 | 49.49610 | 11.07143 | 1018 ft | 6 kts | 165° |
| 2026-05-04 19:36 | 49.49594 | 11.07188 | 1018 ft | 4 kts | 60° |
| 2026-05-04 19:36 | 49.49620 | 11.07222 | 1019 ft | 7 kts | 47° |
| 2026-05-04 19:36 | 49.49629 | 11.07333 | 1019 ft | 12 kts | 97° |
| 2026-05-04 19:36 | 49.49617 | 11.07461 | 1019 ft | 12 kts | 98° |
| 2026-05-04 19:37 | 49.49602 | 11.07616 | 1022 ft | 16 kts | 98° |
| 2026-05-04 19:37 | 49.49585 | 11.07780 | 1025 ft | 14 kts | 98° |
| 2026-05-04 19:37 | 49.49570 | 11.07919 | 1027 ft | 11 kts | 97° |
| 2026-05-04 19:37 | 49.49559 | 11.08035 | 1029 ft | 10 kts | 95° |
| 2026-05-04 19:38 | 49.49550 | 11.08150 | 1029 ft | 13 kts | 100° |
| 2026-05-04 19:38 | 49.49535 | 11.08312 | 1029 ft | 6 kts | 81° |
| 2026-05-04 19:38 | 49.49553 | 11.08348 | 1030 ft | 3 kts | 13° |
| 2026-05-04 19:38 | 49.49609 | 11.08404 | 1032 ft | 13 kts | 77° |
| 2026-05-04 19:39 | 49.49603 | 11.08562 | 1035 ft | 14 kts | 99° |
| 2026-05-04 19:39 | 49.49589 | 11.08711 | 1039 ft | 13 kts | 96° |
| 2026-05-04 19:39 | 49.49574 | 11.08839 | 1042 ft | 11 kts | 98° |
| 2026-05-04 19:39 | 49.49564 | 11.08966 | 1044 ft | 16 kts | 97° |
| 2026-05-04 19:40 | 49.49539 | 11.09232 | 1047 ft | 25 kts | 99° |
| 2026-05-04 19:40 | 49.49571 | 11.09442 | 1048 ft | 19 kts | 52° |
| 2026-05-04 19:40 | 49.49661 | 11.09564 | 1049 ft | 12 kts | 358° |
| 2026-05-04 19:40 | 49.49701 | 11.09502 | 1049 ft | 0 kts | 282° |
| 2026-05-04 19:41 | 49.49703 | 11.09491 | 1049 ft | 1 kts | 284° |
| 2026-05-04 19:41 | 49.49704 | 11.09476 | 1049 ft | 1 kts | 281° |
| 2026-05-04 19:41 | 49.49714 | 11.09391 | 1049 ft | 26 kts | 277° |
| 2026-05-04 19:41 | 49.49780 | 11.08714 | 1042 ft | 99 kts | 278° |
| 2026-05-04 19:42 | 49.49915 | 11.07324 | 1024 ft | 160 kts | 279° |
| 2026-05-04 19:42 | 49.50079 | 11.05595 | 1518 ft | 161 kts | 279° |
| 2026-05-04 19:42 | 49.50242 | 11.03866 | 1869 ft | 169 kts | 280° |
| 2026-05-04 19:42 | 49.50429 | 11.02005 | 2150 ft | 183 kts | 280° |
| 2026-05-04 19:43 | 49.50632 | 10.99998 | 2483 ft | 196 kts | 280° |
| 2026-05-04 19:43 | 49.50846 | 10.97858 | 2791 ft | 211 kts | 280° |
| 2026-05-04 19:43 | 49.51076 | 10.95544 | 3040 ft | 232 kts | 281° |
| 2026-05-04 19:43 | 49.51329 | 10.92982 | 3398 ft | 251 kts | 280° |
| 2026-05-04 19:44 | 49.51596 | 10.90284 | 3914 ft | 263 kts | 280° |
| 2026-05-04 19:44 | 49.51869 | 10.87484 | 4663 ft | 267 kts | 279° |
| 2026-05-04 19:44 | 49.52143 | 10.84670 | 5422 ft | 270 kts | 278° |
| 2026-05-04 19:44 | 49.52421 | 10.81802 | 6183 ft | 274 kts | 278° |
| 2026-05-04 19:45 | 49.52700 | 10.78893 | 6974 ft | 278 kts | 277° |
| 2026-05-04 19:45 | 49.52979 | 10.75969 | 7794 ft | 280 kts | 277° |
| 2026-05-04 19:45 | 49.53260 | 10.73006 | 8625 ft | 281 kts | 277° |
| 2026-05-04 19:45 | 49.53540 | 10.70041 | 9415 ft | 283 kts | 276° |
| 2026-05-04 19:46 | 49.53818 | 10.67076 | 10168 ft | 285 kts | 276° |
| 2026-05-04 19:46 | 49.54104 | 10.64022 | 10677 ft | 297 kts | 276° |
| 2026-05-04 19:46 | 49.54405 | 10.60792 | 10978 ft | 314 kts | 276° |
| 2026-05-04 19:46 | 49.54726 | 10.57418 | 11449 ft | 325 kts | 278° |
| 2026-05-04 19:47 | 49.55448 | 10.54091 | 12092 ft | 334 kts | 298° |
| 2026-05-04 19:47 | 49.57000 | 10.51408 | 12781 ft | 342 kts | 321° |
| 2026-05-04 19:47 | 49.58998 | 10.49440 | 13461 ft | 346 kts | 327° |
| 2026-05-04 19:47 | 49.61046 | 10.47525 | 14091 ft | 350 kts | 327° |
| 2026-05-04 19:48 | 49.63145 | 10.45545 | 14731 ft | 354 kts | 326° |
| 2026-05-04 19:48 | 49.65228 | 10.43557 | 15344 ft | 357 kts | 326° |
| 2026-05-04 19:48 | 49.67341 | 10.41455 | 15968 ft | 360 kts | 324° |
| 2026-05-04 19:48 | 49.69426 | 10.39298 | 16562 ft | 363 kts | 324° |
| 2026-05-04 19:49 | 49.71518 | 10.37118 | 17143 ft | 366 kts | 324° |
| 2026-05-04 19:49 | 49.73621 | 10.34925 | 17710 ft | 369 kts | 323° |
| 2026-05-04 19:49 | 49.75764 | 10.32693 | 18273 ft | 372 kts | 323° |
| 2026-05-04 19:49 | 49.77908 | 10.30461 | 18846 ft | 375 kts | 323° |
| 2026-05-04 19:50 | 49.80082 | 10.28197 | 19386 ft | 378 kts | 323° |
| 2026-05-04 19:50 | 49.82245 | 10.25940 | 19922 ft | 381 kts | 323° |
| 2026-05-04 19:50 | 49.84445 | 10.23644 | 20472 ft | 383 kts | 323° |
| 2026-05-04 19:50 | 49.86681 | 10.21308 | 20987 ft | 386 kts | 323° |
| 2026-05-04 19:51 | 49.88881 | 10.18962 | 21465 ft | 389 kts | 320° |
| 2026-05-04 19:51 | 49.90920 | 10.16178 | 21951 ft | 388 kts | 311° |
| 2026-05-04 19:51 | 49.92650 | 10.12964 | 22456 ft | 387 kts | 302° |
| 2026-05-04 19:51 | 49.94139 | 10.09523 | 22928 ft | 389 kts | 300° |
| 2026-05-04 19:52 | 49.95595 | 10.05999 | 23353 ft | 392 kts | 300° |
| 2026-05-04 19:52 | 49.97067 | 10.02414 | 23788 ft | 395 kts | 299° |
| 2026-05-04 19:52 | 49.98552 | 9.98808 | 23952 ft | 397 kts | 300° |
| 2026-05-04 19:52 | 50.00053 | 9.95176 | 23959 ft | 397 kts | 300° |
| 2026-05-04 19:53 | 50.01561 | 9.91535 | 23960 ft | 397 kts | 300° |
| 2026-05-04 19:53 | 50.03033 | 9.87979 | 23961 ft | 396 kts | 300° |
| 2026-05-04 19:53 | 50.04536 | 9.84350 | 23959 ft | 396 kts | 300° |
| 2026-05-04 19:53 | 50.05969 | 9.80718 | 23960 ft | 394 kts | 296° |
| 2026-05-04 19:54 | 50.07219 | 9.76909 | 23959 ft | 393 kts | 291° |
| 2026-05-04 19:54 | 50.08245 | 9.73012 | 23957 ft | 392 kts | 287° |
| 2026-05-04 19:54 | 50.09162 | 9.69026 | 23959 ft | 391 kts | 287° |
| 2026-05-04 19:54 | 50.10053 | 9.65054 | 23958 ft | 391 kts | 286° |
| 2026-05-04 19:55 | 50.10947 | 9.61057 | 23956 ft | 391 kts | 286° |
| 2026-05-04 19:55 | 50.11844 | 9.57050 | 23957 ft | 391 kts | 286° |
| 2026-05-04 19:55 | 50.12734 | 9.53079 | 23958 ft | 391 kts | 286° |
| 2026-05-04 19:55 | 50.13629 | 9.49081 | 23957 ft | 391 kts | 287° |
| 2026-05-04 19:56 | 50.14517 | 9.45111 | 23957 ft | 391 kts | 286° |
| 2026-05-04 19:56 | 50.15415 | 9.41086 | 23959 ft | 392 kts | 286° |
| 2026-05-04 19:56 | 50.16312 | 9.37057 | 23959 ft | 392 kts | 286° |
| 2026-05-04 19:56 | 50.17207 | 9.33057 | 23959 ft | 392 kts | 287° |
| 2026-05-04 19:57 | 50.18491 | 9.29342 | 23935 ft | 399 kts | 306° |
| 2026-05-04 19:57 | 50.20604 | 9.26493 | 23966 ft | 406 kts | 321° |
| 2026-05-04 19:57 | 50.22917 | 9.23983 | 23962 ft | 406 kts | 322° |
| 2026-05-04 19:57 | 50.25233 | 9.21470 | 23959 ft | 405 kts | 321° |
| 2026-05-04 19:58 | 50.27535 | 9.18913 | 23960 ft | 405 kts | 321° |
| 2026-05-04 19:58 | 50.29795 | 9.16351 | 23961 ft | 406 kts | 320° |
| 2026-05-04 19:58 | 50.32069 | 9.13736 | 23962 ft | 406 kts | 320° |
| 2026-05-04 19:58 | 50.34351 | 9.11087 | 23962 ft | 406 kts | 320° |
| 2026-05-04 19:59 | 50.36594 | 9.08470 | 23964 ft | 406 kts | 320° |
| 2026-05-04 19:59 | 50.38864 | 9.05811 | 23965 ft | 406 kts | 320° |
| 2026-05-04 19:59 | 50.41105 | 9.03179 | 23966 ft | 406 kts | 320° |
| 2026-05-04 19:59 | 50.43352 | 9.00534 | 23965 ft | 406 kts | 320° |
| 2026-05-04 20:00 | 50.45613 | 8.97868 | 23969 ft | 406 kts | 320° |
| 2026-05-04 20:00 | 50.47872 | 8.95199 | 23966 ft | 405 kts | 320° |
| 2026-05-04 20:00 | 50.50851 | 8.91675 | 23967 ft | 405 kts | 319° |
| 2026-05-04 20:00 | 50.52356 | 8.89893 | 23969 ft | 405 kts | 320° |
| 2026-05-04 20:01 | 50.54593 | 8.87241 | 23968 ft | 405 kts | 319° |
| 2026-05-04 20:01 | 50.56838 | 8.84575 | 23970 ft | 405 kts | 320° |
| 2026-05-04 20:01 | 50.59092 | 8.81895 | 23972 ft | 404 kts | 320° |
| 2026-05-04 20:01 | 50.61340 | 8.79221 | 23970 ft | 404 kts | 319° |
| 2026-05-04 20:02 | 50.63578 | 8.76556 | 23971 ft | 404 kts | 319° |
| 2026-05-04 20:02 | 50.65810 | 8.73893 | 23973 ft | 404 kts | 319° |
| 2026-05-04 20:02 | 50.68071 | 8.71191 | 23974 ft | 404 kts | 319° |
| 2026-05-04 20:02 | 50.70313 | 8.68512 | 23973 ft | 404 kts | 319° |
| 2026-05-04 20:03 | 50.72534 | 8.65851 | 23979 ft | 405 kts | 319° |
| 2026-05-04 20:03 | 50.74800 | 8.63136 | 23978 ft | 405 kts | 319° |
| 2026-05-04 20:03 | 50.77015 | 8.60477 | 23980 ft | 405 kts | 319° |
| 2026-05-04 20:03 | 50.79250 | 8.57789 | 23977 ft | 405 kts | 319° |
| 2026-05-04 20:04 | 50.81511 | 8.55069 | 23978 ft | 405 kts | 319° |
| 2026-05-04 20:04 | 50.83725 | 8.52399 | 23977 ft | 405 kts | 319° |
| 2026-05-04 20:04 | 50.85981 | 8.49674 | 23980 ft | 405 kts | 319° |
| 2026-05-04 20:04 | 50.88230 | 8.46957 | 23981 ft | 405 kts | 319° |
| 2026-05-04 20:05 | 50.90456 | 8.44262 | 23979 ft | 405 kts | 319° |
| 2026-05-04 20:05 | 50.92680 | 8.41565 | 23978 ft | 405 kts | 319° |
| 2026-05-04 20:05 | 50.94926 | 8.38838 | 23978 ft | 405 kts | 319° |
| 2026-05-04 20:05 | 50.97160 | 8.36127 | 23977 ft | 404 kts | 319° |
| 2026-05-04 20:06 | 50.99385 | 8.33424 | 23977 ft | 404 kts | 319° |
| 2026-05-04 20:06 | 51.01683 | 8.30851 | 23980 ft | 406 kts | 323° |
| 2026-05-04 20:06 | 51.04097 | 8.28506 | 23979 ft | 407 kts | 326° |
| 2026-05-04 20:06 | 51.06559 | 8.26296 | 23976 ft | 407 kts | 327° |
| 2026-05-04 20:07 | 51.09032 | 8.24106 | 23972 ft | 407 kts | 327° |
| 2026-05-04 20:07 | 51.11528 | 8.21897 | 23976 ft | 407 kts | 327° |
| 2026-05-04 20:07 | 51.13986 | 8.19718 | 23974 ft | 408 kts | 327° |
| 2026-05-04 20:07 | 51.16459 | 8.17520 | 23976 ft | 408 kts | 327° |
| 2026-05-04 20:08 | 51.18940 | 8.15307 | 23972 ft | 408 kts | 327° |
| 2026-05-04 20:08 | 51.21386 | 8.13121 | 23977 ft | 408 kts | 327° |
| 2026-05-04 20:08 | 51.23862 | 8.10906 | 23974 ft | 409 kts | 327° |
| 2026-05-04 20:08 | 51.26333 | 8.08691 | 23968 ft | 409 kts | 327° |
| 2026-05-04 20:09 | 51.28808 | 8.06468 | 23974 ft | 408 kts | 327° |
| 2026-05-04 20:09 | 51.31293 | 8.04232 | 23975 ft | 408 kts | 327° |
| 2026-05-04 20:09 | 51.33729 | 8.02037 | 23971 ft | 408 kts | 327° |
| 2026-05-04 20:09 | 51.36221 | 7.99789 | 23975 ft | 408 kts | 327° |
| 2026-05-04 20:10 | 51.38689 | 7.97562 | 23970 ft | 407 kts | 327° |
| 2026-05-04 20:10 | 51.41141 | 7.95346 | 23971 ft | 407 kts | 327° |
| 2026-05-04 20:10 | 51.43605 | 7.93126 | 23972 ft | 407 kts | 327° |
| 2026-05-04 20:10 | 51.46073 | 7.90948 | 23968 ft | 408 kts | 329° |
| 2026-05-04 20:11 | 51.48655 | 7.89021 | 23971 ft | 410 kts | 334° |
| 2026-05-04 20:11 | 51.51302 | 7.87452 | 23965 ft | 411 kts | 339° |
| 2026-05-04 20:11 | 51.54050 | 7.86092 | 23966 ft | 411 kts | 340° |
| 2026-05-04 20:11 | 51.56766 | 7.84804 | 23969 ft | 411 kts | 341° |
| 2026-05-04 20:12 | 51.59536 | 7.83495 | 23968 ft | 411 kts | 340° |
| 2026-05-04 20:12 | 51.62322 | 7.82170 | 23964 ft | 411 kts | 341° |
| 2026-05-04 20:12 | 51.65056 | 7.80867 | 23969 ft | 411 kts | 340° |
| 2026-05-04 20:12 | 51.67799 | 7.79547 | 23966 ft | 411 kts | 340° |
| 2026-05-04 20:13 | 51.70533 | 7.78227 | 23967 ft | 411 kts | 340° |
| 2026-05-04 20:13 | 51.73243 | 7.76916 | 23969 ft | 410 kts | 340° |
| 2026-05-04 20:13 | 51.75982 | 7.75590 | 23963 ft | 410 kts | 340° |
| 2026-05-04 20:13 | 51.78724 | 7.74258 | 23963 ft | 410 kts | 340° |
| 2026-05-04 20:14 | 51.81456 | 7.72933 | 23962 ft | 410 kts | 340° |
| 2026-05-04 20:14 | 51.84114 | 7.71366 | 23950 ft | 406 kts | 330° |
| 2026-05-04 20:14 | 51.86383 | 7.68789 | 23943 ft | 396 kts | 313° |
| 2026-05-04 20:14 | 51.88053 | 7.65327 | 23620 ft | 384 kts | 296° |
| 2026-05-04 20:15 | 51.88962 | 7.61345 | 22985 ft | 377 kts | 279° |
| 2026-05-04 20:15 | 51.89376 | 7.57196 | 22402 ft | 375 kts | 275° |
| 2026-05-04 20:15 | 51.89686 | 7.53059 | 21856 ft | 373 kts | 274° |
| 2026-05-04 20:15 | 51.89977 | 7.48904 | 21331 ft | 371 kts | 274° |
| 2026-05-04 20:16 | 51.90259 | 7.44772 | 20830 ft | 369 kts | 274° |
| 2026-05-04 20:16 | 51.90425 | 7.40624 | 20316 ft | 366 kts | 270° |
| 2026-05-04 20:16 | 51.90478 | 7.36538 | 19825 ft | 364 kts | 268° |
| 2026-05-04 20:16 | 51.90150 | 7.32529 | 19287 ft | 359 kts | 250° |
| 2026-05-04 20:17 | 51.89247 | 7.28824 | 18818 ft | 355 kts | 244° |
| 2026-05-04 20:17 | 51.88227 | 7.25193 | 18324 ft | 354 kts | 243° |
| 2026-05-04 20:17 | 51.87195 | 7.21599 | 17832 ft | 353 kts | 243° |
| 2026-05-04 20:17 | 51.86171 | 7.18060 | 17371 ft | 351 kts | 243° |
| 2026-05-04 20:18 | 51.85140 | 7.14521 | 16921 ft | 349 kts | 243° |
| 2026-05-04 20:18 | 51.84052 | 7.11031 | 16470 ft | 346 kts | 240° |
| 2026-05-04 20:18 | 51.82864 | 7.07669 | 16040 ft | 343 kts | 238° |
| 2026-05-04 20:18 | 51.81669 | 7.04374 | 15587 ft | 341 kts | 238° |
| 2026-05-04 20:19 | 51.80464 | 7.01064 | 15142 ft | 339 kts | 238° |
| 2026-05-04 20:19 | 51.79278 | 6.97831 | 14702 ft | 337 kts | 237° |
| 2026-05-04 20:19 | 51.77972 | 6.94702 | 14267 ft | 335 kts | 234° |
| 2026-05-04 20:19 | 51.76643 | 6.91666 | 13821 ft | 333 kts | 233° |
| 2026-05-04 20:20 | 51.75294 | 6.88603 | 13348 ft | 332 kts | 233° |
| 2026-05-04 20:20 | 51.73969 | 6.85596 | 12907 ft | 331 kts | 233° |
| 2026-05-04 20:20 | 51.72638 | 6.82578 | 12475 ft | 329 kts | 233° |
| 2026-05-04 20:20 | 51.71321 | 6.79589 | 12068 ft | 327 kts | 233° |
| 2026-05-04 20:21 | 51.70022 | 6.76641 | 11666 ft | 324 kts | 233° |
| 2026-05-04 20:21 | 51.68725 | 6.73711 | 11264 ft | 322 kts | 233° |
| 2026-05-04 20:21 | 51.66156 | 6.67906 | 10544 ft | 314 kts | 233° |
| 2026-05-04 20:22 | 51.64919 | 6.65097 | 10374 ft | 304 kts | 233° |
| 2026-05-04 20:22 | 51.63713 | 6.62360 | 10205 ft | 295 kts | 233° |
| 2026-05-04 20:22 | 51.62543 | 6.59702 | 10023 ft | 287 kts | 233° |
| 2026-05-04 20:22 | 51.61407 | 6.57104 | 9728 ft | 283 kts | 233° |
| 2026-05-04 20:23 | 51.60286 | 6.54525 | 9364 ft | 282 kts | 234° |
| 2026-05-04 20:23 | 51.59482 | 6.51645 | 8998 ft | 283 kts | 257° |
| 2026-05-04 20:23 | 51.59335 | 6.48500 | 8685 ft | 287 kts | 271° |
| 2026-05-04 20:23 | 51.59505 | 6.45323 | 8180 ft | 285 kts | 275° |
| 2026-05-04 20:24 | 51.59664 | 6.42178 | 7682 ft | 282 kts | 272° |
| 2026-05-04 20:24 | 51.59752 | 6.39053 | 7191 ft | 280 kts | 273° |
| 2026-05-04 20:24 | 51.60196 | 6.36045 | 6629 ft | 279 kts | 297° |
| 2026-05-04 20:24 | 51.61417 | 6.33687 | 6039 ft | 278 kts | 323° |
| 2026-05-04 20:25 | 51.63166 | 6.32487 | 5435 ft | 275 kts | 352° |
| 2026-05-04 20:25 | 51.65038 | 6.32718 | 4843 ft | 271 kts | 20° |
| 2026-05-04 20:25 | 51.66598 | 6.34294 | 4247 ft | 267 kts | 48° |
| 2026-05-04 20:25 | 51.67490 | 6.36826 | 3666 ft | 262 kts | 77° |
| 2026-05-04 20:26 | 51.67502 | 6.39692 | 3169 ft | 253 kts | 107° |
| 2026-05-04 20:26 | 51.66653 | 6.41999 | 2985 ft | 233 kts | 139° |
| 2026-05-04 20:26 | 51.65253 | 6.43123 | 2988 ft | 224 kts | 172° |
| 2026-05-04 20:26 | 51.63733 | 6.42820 | 2991 ft | 225 kts | 204° |
| 2026-05-04 20:27 | 51.62546 | 6.41183 | 2990 ft | 229 kts | 237° |
| 2026-05-04 20:27 | 51.61914 | 6.38838 | 2999 ft | 228 kts | 245° |
| 2026-05-04 20:27 | 51.61079 | 6.36740 | 2987 ft | 221 kts | 226° |
| 2026-05-04 20:27 | 51.60096 | 6.34910 | 2809 ft | 219 kts | 238° |
| 2026-05-04 20:28 | 51.59696 | 6.32560 | 2465 ft | 224 kts | 266° |
| 2026-05-04 20:28 | 51.59758 | 6.30105 | 2150 ft | 215 kts | 273° |
| 2026-05-04 20:28 | 51.59917 | 6.27740 | 1692 ft | 213 kts | 274° |
| 2026-05-04 20:28 | 51.60023 | 6.25412 | 1373 ft | 203 kts | 270° |
| 2026-05-04 20:29 | 51.60059 | 6.23260 | 1236 ft | 183 kts | 269° |
| 2026-05-04 20:29 | 51.60091 | 6.21269 | 898 ft | 176 kts | 270° |
| 2026-05-04 20:29 | 51.60141 | 6.19382 | 626 ft | 165 kts | 270° |
| 2026-05-04 20:29 | 51.60170 | 6.17626 | 372 ft | 152 kts | 270° |
| 2026-05-04 20:30 | 51.60210 | 6.15978 | 152 ft | 143 kts | 270° |
| 2026-05-04 20:30 | 51.60239 | 6.14531 | 105 ft | 101 kts | 271° |
| 2026-05-04 20:30 | 51.60254 | 6.13746 | 97 ft | 60 kts | 272° |
| 2026-05-04 20:30 | 51.60268 | 6.13172 | 97 ft | 44 kts | 272° |
| 2026-05-04 20:31 | 51.60234 | 6.12959 | 97 ft | 15 kts | 187° |
| 2026-05-04 20:31 | 51.60131 | 6.12958 | 98 ft | 14 kts | 186° |